createdAt,value
2016-06-23T00:00:31.554Z,84.56
2016-06-23T00:01:31.531Z,84.86
2016-06-23T00:02:31.515Z,84.18
2016-06-23T00:03:31.494Z,84.22
2016-06-23T00:04:31.483Z,84.22
2016-06-23T00:05:31.463Z,84.61
2016-06-23T00:06:30.820Z,84.76
2016-06-23T00:07:31.437Z,84.66
2016-06-23T00:08:31.430Z,84.38
2016-06-23T00:09:31.414Z,83.99
2016-06-23T00:10:31.398Z,83.36
2016-06-23T00:11:31.395Z,83.36
2016-06-23T00:12:31.370Z,84.12
2016-06-23T00:13:31.350Z,84.03
2016-06-23T00:14:31.346Z,84.32
2016-06-23T00:15:31.325Z,84.86
2016-06-23T00:16:31.314Z,85.53
2016-06-23T00:17:30.662Z,85.43
2016-06-23T00:18:31.283Z,84.56
2016-06-23T00:19:31.282Z,83.99
2016-06-23T00:20:31.257Z,83.84
2016-06-23T00:21:31.243Z,83.55
2016-06-23T00:22:31.231Z,83.26
2016-06-23T00:23:31.215Z,83.74
2016-06-23T00:24:31.202Z,84.22
2016-06-23T00:25:31.188Z,84.56
2016-06-23T00:26:31.170Z,83.7
2016-06-23T00:27:31.153Z,84.47
2016-06-23T00:28:31.147Z,84.38
2016-06-23T00:29:30.487Z,84.38
2016-06-23T00:30:31.111Z,83.89
2016-06-23T00:31:31.106Z,83.99
2016-06-23T00:32:31.094Z,83.31
2016-06-23T00:33:30.424Z,82.78
2016-06-23T00:34:31.053Z,83.12
2016-06-23T00:35:31.043Z,83.31
2016-06-23T00:36:31.020Z,83.31
2016-06-23T00:37:31.018Z,83.41
2016-06-23T00:38:30.367Z,83.8
2016-06-23T00:39:30.979Z,84.28
2016-06-23T00:40:30.333Z,83.8
2016-06-23T00:41:30.950Z,84.18
2016-06-23T00:42:30.946Z,83.61
2016-06-23T00:43:30.287Z,83.8
2016-06-23T00:44:30.911Z,82.83
2016-06-23T00:45:30.903Z,83.8
2016-06-23T00:46:30.891Z,83.51
2016-06-23T00:47:30.231Z,83.31
2016-06-23T00:48:30.850Z,83.31
2016-06-23T00:49:30.206Z,83.41
2016-06-23T00:50:30.831Z,82.93
2016-06-23T00:51:30.184Z,82.64
2016-06-23T00:52:30.799Z,83.41
2016-06-23T00:53:30.782Z,83.41
2016-06-23T00:54:30.767Z,83.41
2016-06-23T00:55:30.750Z,82.83
2016-06-23T00:56:30.742Z,82.68
2016-06-23T00:57:30.729Z,82.16
2016-06-23T00:58:30.069Z,82.74
2016-06-23T00:59:30.730Z,83.12
2016-06-23T01:00:30.686Z,82.54
2016-06-23T01:01:30.679Z,83.41
2016-06-23T01:02:30.653Z,83.12
2016-06-23T01:03:30.645Z,82.93
2016-06-23T01:04:30.622Z,82.29
2016-06-23T01:05:29.967Z,82.54
2016-06-23T01:06:29.962Z,82.64
2016-06-23T01:07:29.999Z,82.2
2016-06-23T01:08:30.574Z,82.64
2016-06-23T01:09:30.560Z,82.54
2016-06-23T01:10:30.549Z,82.54
2016-06-23T01:11:30.059Z,82.35
2016-06-23T01:12:29.866Z,82.54
2016-06-23T01:13:30.575Z,82.83
2016-06-23T01:14:29.836Z,82.74
2016-06-23T01:15:30.471Z,82.54
2016-06-23T01:16:30.469Z,82.93
2016-06-23T01:17:30.443Z,82.45
2016-06-23T01:18:30.427Z,81.96
2016-06-23T01:19:30.410Z,82.68
2016-06-23T01:20:30.395Z,83.41
2016-06-23T01:21:30.377Z,84.09
2016-06-23T01:22:30.367Z,83.31
2016-06-23T01:23:30.354Z,83.31
2016-06-23T01:24:30.341Z,83.22
2016-06-23T01:25:30.319Z,83.61
2016-06-23T01:26:30.314Z,83.51
2016-06-23T01:27:30.296Z,82.26
2016-06-23T01:28:30.274Z,82.35
2016-06-23T01:29:29.629Z,82.54
2016-06-23T01:30:29.620Z,83.31
2016-06-23T01:31:30.239Z,83.61
2016-06-23T01:32:30.224Z,83.03
2016-06-23T01:33:30.208Z,82.74
2016-06-23T01:34:30.200Z,82.64
2016-06-23T01:35:30.184Z,82.45
2016-06-23T01:36:30.166Z,81.68
2016-06-23T01:37:30.153Z,81.96
2016-06-23T01:38:29.503Z,83.03
2016-06-23T01:39:29.482Z,83.22
2016-06-23T01:40:30.104Z,83.12
2016-06-23T01:41:30.100Z,82.93
2016-06-23T01:42:30.106Z,82.93
2016-06-23T01:43:30.092Z,83.31
2016-06-23T01:44:30.050Z,83.22
2016-06-23T01:45:29.394Z,83.41
2016-06-23T01:46:30.041Z,83.51
2016-06-23T01:47:30.012Z,83.31
2016-06-23T01:48:29.999Z,83.61
2016-06-23T01:49:29.989Z,83.08
2016-06-23T01:50:29.977Z,83.41
2016-06-23T01:51:29.948Z,83.12
2016-06-23T01:52:29.930Z,83.51
2016-06-23T01:53:29.924Z,83.31
2016-06-23T01:54:29.898Z,83.22
2016-06-23T01:55:29.897Z,83.37
2016-06-23T01:56:29.878Z,83.95
2016-06-23T01:57:29.862Z,83.66
2016-06-23T01:58:29.847Z,83.95
2016-06-23T01:59:29.834Z,83.75
2016-06-23T02:00:29.819Z,83.95
2016-06-23T02:01:29.163Z,83.85
2016-06-23T02:02:29.149Z,83.47
2016-06-23T02:03:29.788Z,83.08
2016-06-23T02:04:29.770Z,83.7
2016-06-23T02:05:29.746Z,84.05
2016-06-23T02:06:29.731Z,83.18
2016-06-23T02:07:29.716Z,83.08
2016-06-23T02:08:29.709Z,83.95
2016-06-23T02:09:29.689Z,84.62
2016-06-23T02:10:29.678Z,83.75
2016-06-23T02:11:29.672Z,84.62
2016-06-23T02:12:29.646Z,84.53
2016-06-23T02:13:28.991Z,84.43
2016-06-23T02:14:29.623Z,83.85
2016-06-23T02:15:28.974Z,83.56
2016-06-23T02:16:29.601Z,84.05
2016-06-23T02:17:29.572Z,84.72
2016-06-23T02:18:28.919Z,84.81
2016-06-23T02:19:29.544Z,84.33
2016-06-23T02:20:28.917Z,84.53
2016-06-23T02:21:29.545Z,84.43
2016-06-23T02:22:29.507Z,84.05
2016-06-23T02:23:29.489Z,83.75
2016-06-23T02:24:28.830Z,83.85
2016-06-23T02:25:29.455Z,83.75
2016-06-23T02:26:29.444Z,83.37
2016-06-23T02:27:29.424Z,83.66
2016-06-23T02:28:29.420Z,83.85
2016-06-23T02:29:29.430Z,84.05
2016-06-23T02:30:29.385Z,84.43
2016-06-23T02:31:29.373Z,84.91
2016-06-23T02:32:29.356Z,84.14
2016-06-23T02:33:29.336Z,83.95
2016-06-23T02:34:29.323Z,83.85
2016-06-23T02:35:28.691Z,84.81
2016-06-23T02:36:29.325Z,84.62
2016-06-23T02:37:29.298Z,85.39
2016-06-23T02:38:28.621Z,85.58
2016-06-23T02:39:29.262Z,85.16
2016-06-23T02:40:28.601Z,84.97
2016-06-23T02:41:29.230Z,85.39
2016-06-23T02:42:28.568Z,85.16
2016-06-23T02:43:29.195Z,85.1
2016-06-23T02:44:29.182Z,84.43
2016-06-23T02:45:28.525Z,84.81
2016-06-23T02:46:29.157Z,85.39
2016-06-23T02:47:29.131Z,85.35
2016-06-23T02:48:29.112Z,85.39
2016-06-23T02:49:29.104Z,84.72
2016-06-23T02:50:29.121Z,84.33
2016-06-23T02:51:29.083Z,84.23
2016-06-23T02:52:28.434Z,84.05
2016-06-23T02:53:28.413Z,83.75
2016-06-23T02:54:28.407Z,84.53
2016-06-23T02:55:29.025Z,84.14
2016-06-23T02:56:29.037Z,83.85
2016-06-23T02:57:28.346Z,84.05
2016-06-23T02:58:28.976Z,84.72
2016-06-23T02:59:28.329Z,84.81
2016-06-23T03:00:28.303Z,84.05
2016-06-23T03:01:28.934Z,84.53
2016-06-23T03:02:28.922Z,84.62
2016-06-23T03:03:28.256Z,84.53
2016-06-23T03:04:28.894Z,84.23
2016-06-23T03:05:28.877Z,83.95
2016-06-23T03:06:28.220Z,84.53
2016-06-23T03:07:28.845Z,84.33
2016-06-23T03:08:28.838Z,84.23
2016-06-23T03:09:28.167Z,84.43
2016-06-23T03:10:28.801Z,83.37
2016-06-23T03:11:28.793Z,83.18
2016-06-23T03:12:28.129Z,83.31
2016-06-23T03:13:28.126Z,84.23
2016-06-23T03:14:28.747Z,84.72
2016-06-23T03:15:28.085Z,84.77
2016-06-23T03:16:28.716Z,84.43
2016-06-23T03:17:28.698Z,84.05
2016-06-23T03:18:28.686Z,85.39
2016-06-23T03:19:28.030Z,85.35
2016-06-23T03:20:28.020Z,84.48
2016-06-23T03:21:28.637Z,83.95
2016-06-23T03:22:28.629Z,83.85
2016-06-23T03:23:28.615Z,84.23
2016-06-23T03:24:28.605Z,84.72
2016-06-23T03:25:27.947Z,84.43
2016-06-23T03:26:28.572Z,85.35
2016-06-23T03:27:27.924Z,85.35
2016-06-23T03:28:27.894Z,84.97
2016-06-23T03:29:28.530Z,85.06
2016-06-23T03:30:28.509Z,84.77
2016-06-23T03:31:27.856Z,84.43
2016-06-23T03:32:27.869Z,84.72
2016-06-23T03:33:28.460Z,84.62
2016-06-23T03:34:27.814Z,85.49
2016-06-23T03:35:28.446Z,84.97
2016-06-23T03:36:28.421Z,85.16
2016-06-23T03:37:28.413Z,85.16
2016-06-23T03:38:28.395Z,84.87
2016-06-23T03:39:28.371Z,84.39
2016-06-23T03:40:27.724Z,84.62
2016-06-23T03:41:28.355Z,84.62
2016-06-23T03:42:27.693Z,84.53
2016-06-23T03:43:28.322Z,84.33
2016-06-23T03:44:28.312Z,84.72
2016-06-23T03:45:27.656Z,84.53
2016-06-23T03:46:27.639Z,84.72
2016-06-23T03:47:28.267Z,85.1
2016-06-23T03:48:28.241Z,85.93
2016-06-23T03:49:28.247Z,85.16
2016-06-23T03:50:27.585Z,84.39
2016-06-23T03:51:28.206Z,84.33
2016-06-23T03:52:28.185Z,85.2
2016-06-23T03:53:28.172Z,85.35
2016-06-23T03:54:28.161Z,84.53
2016-06-23T03:55:27.502Z,84.14
2016-06-23T03:56:28.127Z,84.33
2016-06-23T03:57:28.124Z,84.72
2016-06-23T03:58:28.103Z,84.05
2016-06-23T03:59:28.078Z,84.23
2016-06-23T04:00:28.070Z,83.85
2016-06-23T04:01:28.055Z,83.37
2016-06-23T04:02:28.057Z,83.95
2016-06-23T04:03:28.062Z,83.75
2016-06-23T04:04:28.017Z,84.23
2016-06-23T04:05:27.991Z,84.91
2016-06-23T04:06:27.977Z,84.62
2016-06-23T04:07:27.978Z,84.53
2016-06-23T04:08:27.955Z,84.87
2016-06-23T04:09:27.927Z,84.48
2016-06-23T04:10:27.919Z,84.77
2016-06-23T04:11:27.909Z,84.58
2016-06-23T04:12:27.900Z,84.05
2016-06-23T04:13:27.883Z,83.85
2016-06-23T04:14:27.863Z,84.14
2016-06-23T04:15:27.845Z,83.75
2016-06-23T04:16:27.830Z,84.05
2016-06-23T04:17:27.818Z,84.97
2016-06-23T04:18:27.162Z,84.87
2016-06-23T04:19:27.787Z,84.87
2016-06-23T04:20:27.765Z,84.58
2016-06-23T04:21:27.765Z,84.29
2016-06-23T04:22:27.751Z,85.25
2016-06-23T04:23:27.096Z,84.67
2016-06-23T04:24:27.717Z,84.53
2016-06-23T04:25:27.057Z,84.43
2016-06-23T04:26:27.676Z,84.77
2016-06-23T04:27:27.673Z,84.67
2016-06-23T04:28:27.017Z,84.67
2016-06-23T04:29:27.007Z,84.1
2016-06-23T04:30:27.628Z,84.23
2016-06-23T04:31:27.611Z,84.67
2016-06-23T04:32:27.601Z,84.67
2016-06-23T04:33:27.599Z,83.75
2016-06-23T04:34:27.566Z,84.53
2016-06-23T04:35:27.560Z,84.67
2016-06-23T04:36:26.902Z,85.35
2016-06-23T04:37:27.526Z,84.97
2016-06-23T04:38:26.880Z,85.16
2016-06-23T04:39:27.499Z,84.67
2016-06-23T04:40:27.485Z,84.87
2016-06-23T04:41:27.463Z,85.16
2016-06-23T04:42:27.446Z,85.25
2016-06-23T04:43:26.800Z,85.35
2016-06-23T04:44:27.428Z,85.25
2016-06-23T04:45:27.402Z,84.87
2016-06-23T04:46:27.400Z,85.35
2016-06-23T04:47:26.750Z,85.44
2016-06-23T04:48:27.366Z,85.44
2016-06-23T04:49:27.347Z,85.35
2016-06-23T04:50:27.343Z,84.97
2016-06-23T04:51:27.310Z,84.97
2016-06-23T04:52:26.661Z,85.35
2016-06-23T04:53:27.290Z,84.87
2016-06-23T04:54:27.272Z,85.35
2016-06-23T04:55:27.285Z,84.58
2016-06-23T04:56:26.603Z,85.35
2016-06-23T04:57:27.238Z,84.97
2016-06-23T04:58:27.225Z,85.44
2016-06-23T04:59:27.196Z,85.64
2016-06-23T05:00:27.189Z,85.83
2016-06-23T05:01:27.167Z,85.06
2016-06-23T05:02:26.517Z,85.35
2016-06-23T05:03:27.142Z,85.44
2016-06-23T05:04:27.124Z,85.74
2016-06-23T05:05:27.115Z,85.35
2016-06-23T05:06:27.098Z,85.06
2016-06-23T05:07:27.080Z,84.62
2016-06-23T05:08:27.072Z,84.62
2016-06-23T05:09:26.418Z,85.35
2016-06-23T05:10:27.038Z,85.16
2016-06-23T05:11:26.386Z,85.16
2016-06-23T05:12:27.007Z,85.54
2016-06-23T05:13:26.993Z,85.54
2016-06-23T05:14:26.977Z,84.97
2016-06-23T05:15:26.975Z,85.44
2016-06-23T05:16:26.957Z,85.54
2016-06-23T05:17:26.937Z,85.16
2016-06-23T05:18:26.287Z,85.35
2016-06-23T05:19:26.909Z,84.87
2016-06-23T05:20:26.268Z,85.93
2016-06-23T05:21:26.871Z,85.74
2016-06-23T05:22:26.875Z,85.74
2016-06-23T05:23:26.850Z,85.64
2016-06-23T05:24:26.841Z,86.31
2016-06-23T05:25:26.814Z,85.74
2016-06-23T05:26:26.814Z,85.44
2016-06-23T05:27:26.803Z,85.06
2016-06-23T05:28:26.796Z,85.44
2016-06-23T05:29:26.126Z,85.44
2016-06-23T05:30:26.743Z,86.31
2016-06-23T05:31:26.732Z,85.93
2016-06-23T05:32:26.716Z,85.83
2016-06-23T05:33:26.713Z,85.74
2016-06-23T05:34:26.686Z,85.74
2016-06-23T05:35:26.034Z,85.83
2016-06-23T05:36:26.656Z,85.64
2016-06-23T05:37:26.031Z,85.74
2016-06-23T05:38:26.627Z,85.54
2016-06-23T05:39:26.614Z,85.44
2016-06-23T05:40:26.634Z,85.54
2016-06-23T05:41:26.588Z,85.44
2016-06-23T05:42:26.567Z,86.02
2016-06-23T05:43:26.557Z,85.54
2016-06-23T05:44:26.532Z,85.54
2016-06-23T05:45:26.535Z,85.35
2016-06-23T05:46:26.519Z,85.35
2016-06-23T05:47:26.499Z,85.74
2016-06-23T05:48:26.484Z,85.35
2016-06-23T05:49:25.821Z,85.16
2016-06-23T05:50:26.457Z,85.64
2016-06-23T05:51:26.447Z,84.97
2016-06-23T05:52:26.422Z,85.93
2016-06-23T05:53:25.770Z,85.35
2016-06-23T05:54:26.401Z,86.45
2016-06-23T05:55:26.378Z,86.02
2016-06-23T05:56:26.368Z,85.06
2016-06-23T05:57:26.350Z,84.62
2016-06-23T05:58:26.343Z,84.91
2016-06-23T05:59:25.677Z,85.39
2016-06-23T06:00:26.309Z,85.49
2016-06-23T06:01:26.299Z,84.53
2016-06-23T06:02:26.282Z,85.2
2016-06-23T06:03:26.487Z,85
2016-06-23T06:04:25.617Z,85.97
2016-06-23T06:05:26.242Z,85.54
2016-06-23T06:06:26.215Z,85.68
2016-06-23T06:07:26.206Z,85.97
2016-06-23T06:08:26.198Z,85.68
2016-06-23T06:09:26.173Z,85.2
2016-06-23T06:10:26.169Z,85.39
2016-06-23T06:11:25.506Z,85.2
2016-06-23T06:12:25.483Z,84.91
2016-06-23T06:13:26.126Z,85.39
2016-06-23T06:14:26.106Z,86.45
2016-06-23T06:15:25.443Z,86.12
2016-06-23T06:16:26.070Z,85.87
2016-06-23T06:17:26.054Z,85.49
2016-06-23T06:18:26.045Z,85.3
2016-06-23T06:19:25.386Z,85.39
2016-06-23T06:20:26.011Z,85.39
2016-06-23T06:21:25.367Z,84.72
2016-06-23T06:22:25.985Z,85.2
2016-06-23T06:23:25.965Z,85.2
2016-06-23T06:24:25.955Z,85.2
2016-06-23T06:25:25.943Z,85.58
2016-06-23T06:26:25.921Z,85.2
2016-06-23T06:27:25.914Z,85.14
2016-06-23T06:28:25.887Z,84.62
2016-06-23T06:29:25.879Z,84.56
2016-06-23T06:30:25.891Z,85.2
2016-06-23T06:31:25.217Z,84.95
2016-06-23T06:32:25.854Z,84.76
2016-06-23T06:33:25.823Z,84.28
2016-06-23T06:34:25.177Z,84.56
2016-06-23T06:35:25.155Z,84.28
2016-06-23T06:36:25.775Z,84.95
2016-06-23T06:37:25.784Z,84.56
2016-06-23T06:38:25.116Z,84.56
2016-06-23T06:39:25.090Z,84.66
2016-06-23T06:40:25.719Z,84.95
2016-06-23T06:41:25.700Z,84.76
2016-06-23T06:42:25.688Z,84.66
2016-06-23T06:43:25.681Z,84.56
2016-06-23T06:44:25.658Z,84.95
2016-06-23T06:45:25.654Z,84.56
2016-06-23T06:46:25.630Z,84.56
2016-06-23T06:47:25.620Z,84.09
2016-06-23T06:48:25.609Z,84.66
2016-06-23T06:49:24.958Z,84.56
2016-06-23T06:50:24.947Z,84.86
2016-06-23T06:51:25.564Z,84.76
2016-06-23T06:52:25.553Z,84.09
2016-06-23T06:53:25.530Z,83.99
2016-06-23T06:54:25.524Z,83.8
2016-06-23T06:55:25.504Z,83.8
2016-06-23T06:56:25.487Z,83.84
2016-06-23T06:57:25.473Z,83.89
2016-06-23T06:58:24.827Z,83.74
2016-06-23T06:59:24.806Z,83.16
2016-06-23T07:00:24.789Z,83.12
2016-06-23T07:01:25.425Z,83.12
2016-06-23T07:02:24.763Z,83.45
2016-06-23T07:03:24.754Z,82.97
2016-06-23T07:04:24.733Z,83.36
2016-06-23T07:05:25.363Z,83.07
2016-06-23T07:06:25.355Z,82.49
2016-06-23T07:07:24.695Z,82.1
2016-06-23T07:08:25.310Z,82.14
2016-06-23T07:09:25.308Z,82.78
2016-06-23T07:10:24.649Z,82.29
2016-06-23T07:11:25.279Z,82.1
2016-06-23T07:12:24.619Z,81.76
2016-06-23T07:13:25.241Z,82.29
2016-06-23T07:14:24.589Z,81.72
2016-06-23T07:15:25.262Z,82.39
2016-06-23T07:16:25.204Z,81.81
2016-06-23T07:17:25.214Z,82.14
2016-06-23T07:18:25.182Z,81.85
2016-06-23T07:19:24.519Z,81.47
2016-06-23T07:20:25.155Z,81.27
2016-06-23T07:21:25.139Z,81.57
2016-06-23T07:22:25.119Z,81.27
2016-06-23T07:23:25.105Z,81.66
2016-06-23T07:24:25.113Z,80.6
2016-06-23T07:25:25.083Z,80.45
2016-06-23T07:26:25.066Z,80.16
2016-06-23T07:27:25.054Z,80.93
2016-06-23T07:28:25.036Z,80.54
2016-06-23T07:29:24.386Z,81.51
2016-06-23T07:30:25.053Z,80.74
2016-06-23T07:31:24.359Z,80.16
2016-06-23T07:32:24.982Z,80.54
2016-06-23T07:33:24.333Z,80.2
2016-06-23T07:34:24.953Z,80.54
2016-06-23T07:35:24.306Z,79.97
2016-06-23T07:36:24.967Z,80.1
2016-06-23T07:37:24.917Z,80.49
2016-06-23T07:38:24.894Z,80.39
2016-06-23T07:39:24.901Z,80.26
2016-06-23T07:40:24.247Z,80.3
2016-06-23T07:41:24.219Z,80.2
2016-06-23T07:42:24.856Z,80.78
2016-06-23T07:43:24.829Z,80
2016-06-23T07:44:24.815Z,80.2
2016-06-23T07:45:24.817Z,80.39
2016-06-23T07:46:24.803Z,79.91
2016-06-23T07:47:24.786Z,80.58
2016-06-23T07:48:24.767Z,80.2
2016-06-23T07:49:24.743Z,80.3
2016-06-23T07:50:24.133Z,80.54
2016-06-23T07:51:24.086Z,79.91
2016-06-23T07:52:24.104Z,79.52
2016-06-23T07:53:24.695Z,79.91
2016-06-23T07:54:24.055Z,80.2
2016-06-23T07:55:24.668Z,80.35
2016-06-23T07:56:24.661Z,80.2
2016-06-23T07:57:24.003Z,79.58
2016-06-23T07:58:24.658Z,79.81
2016-06-23T07:59:24.632Z,80.1
2016-06-23T08:00:24.606Z,79.87
2016-06-23T08:01:24.607Z,79.33
2016-06-23T08:02:24.592Z,79.81
2016-06-23T08:03:24.563Z,80.2
2016-06-23T08:04:23.899Z,80.16
2016-06-23T08:05:23.896Z,79.24
2016-06-23T08:06:23.882Z,79.81
2016-06-23T08:07:24.520Z,80
2016-06-23T08:08:24.491Z,80.3
2016-06-23T08:09:24.484Z,80.39
2016-06-23T08:10:23.839Z,79.52
2016-06-23T08:11:23.815Z,79.52
2016-06-23T08:12:24.470Z,79.33
2016-06-23T08:13:24.427Z,78.56
2016-06-23T08:14:24.415Z,79.04
2016-06-23T08:15:24.404Z,79.14
2016-06-23T08:16:24.384Z,78.17
2016-06-23T08:17:24.371Z,78.17
2016-06-23T08:18:24.360Z,79.43
2016-06-23T08:19:24.351Z,79.52
2016-06-23T08:20:24.391Z,79.62
2016-06-23T08:21:24.327Z,79.14
2016-06-23T08:22:24.315Z,78.59
2016-06-23T08:23:23.656Z,78.46
2016-06-23T08:24:24.284Z,77.73
2016-06-23T08:25:23.637Z,78.11
2016-06-23T08:26:23.612Z,78.21
2016-06-23T08:27:24.248Z,78.79
2016-06-23T08:28:24.243Z,79.27
2016-06-23T08:29:23.568Z,79.04
2016-06-23T08:30:24.202Z,78.66
2016-06-23T08:31:24.197Z,78.41
2016-06-23T08:32:23.531Z,77.53
2016-06-23T08:33:24.162Z,77.19
2016-06-23T08:34:23.518Z,77.05
2016-06-23T08:35:25.018Z,77.09
2016-06-23T08:36:23.480Z,77.05
2016-06-23T08:37:24.110Z,77.44
2016-06-23T08:38:24.089Z,77.53
2016-06-23T08:39:24.086Z,77.73
2016-06-23T08:40:24.079Z,77.25
2016-06-23T08:41:23.416Z,77.05
2016-06-23T08:42:23.403Z,76.67
2016-06-23T08:43:24.037Z,76.22
2016-06-23T08:44:24.017Z,76.61
2016-06-23T08:45:23.368Z,77.19
2016-06-23T08:46:23.993Z,76.42
2016-06-23T08:47:23.986Z,76.7
2016-06-23T08:48:23.982Z,75.84
2016-06-23T08:49:23.948Z,76.7
2016-06-23T08:50:23.950Z,75.93
2016-06-23T08:51:23.935Z,75.54
2016-06-23T08:52:23.927Z,75.68
2016-06-23T08:53:23.897Z,76.35
2016-06-23T08:54:23.903Z,76.42
2016-06-23T08:55:23.249Z,75.54
2016-06-23T08:56:23.229Z,76.45
2016-06-23T08:57:23.864Z,76.26
2016-06-23T08:58:23.844Z,75.58
2016-06-23T08:59:23.835Z,75.29
2016-06-23T09:00:23.179Z,75.1
2016-06-23T09:01:23.163Z,75.2
2016-06-23T09:02:23.791Z,75
2016-06-23T09:03:23.791Z,75.78
2016-06-23T09:04:23.155Z,75.58
2016-06-23T09:05:23.757Z,75.48
2016-06-23T09:06:23.739Z,76.45
2016-06-23T09:07:23.728Z,76.26
2016-06-23T09:08:23.723Z,76.16
2016-06-23T09:09:23.708Z,76.42
2016-06-23T09:10:23.699Z,76.32
2016-06-23T09:11:23.051Z,75.35
2016-06-23T09:12:23.671Z,75.2
2016-06-23T09:13:23.016Z,74.71
2016-06-23T09:14:23.650Z,75.04
2016-06-23T09:15:23.642Z,73.97
2016-06-23T09:16:23.625Z,74.36
2016-06-23T09:17:23.604Z,74.62
2016-06-23T09:18:22.954Z,74.36
2016-06-23T09:19:22.950Z,73.78
2016-06-23T09:20:22.937Z,73.97
2016-06-23T09:21:22.921Z,74.36
2016-06-23T09:22:23.550Z,74.46
2016-06-23T09:23:23.533Z,75.23
2016-06-23T09:24:23.526Z,74.81
2016-06-23T09:25:22.883Z,74.04
2016-06-23T09:26:23.506Z,73.94
2016-06-23T09:27:22.852Z,74.52
2016-06-23T09:28:22.830Z,73.39
2016-06-23T09:29:23.471Z,73.88
2016-06-23T09:30:22.815Z,73.49
2016-06-23T09:31:23.445Z,73.88
2016-06-23T09:32:23.427Z,73.3
2016-06-23T09:33:23.423Z,72.95
2016-06-23T09:34:23.405Z,73.43
2016-06-23T09:35:23.391Z,73.78
2016-06-23T09:36:23.386Z,74.27
2016-06-23T09:37:23.390Z,73.49
2016-06-23T09:38:23.372Z,72.95
2016-06-23T09:39:23.339Z,73.04
2016-06-23T09:40:22.692Z,72.27
2016-06-23T09:41:23.321Z,72.56
2016-06-23T09:42:22.675Z,72.95
2016-06-23T09:43:23.315Z,72.27
2016-06-23T09:44:23.306Z,72.17
2016-06-23T09:45:23.275Z,72.36
2016-06-23T09:46:23.261Z,71.4
2016-06-23T09:47:22.616Z,71.92
2016-06-23T09:48:22.603Z,72.11
2016-06-23T09:49:23.221Z,71.5
2016-06-23T09:50:23.218Z,71.82
2016-06-23T09:51:23.203Z,71.59
2016-06-23T09:52:23.180Z,71.78
2016-06-23T09:53:23.192Z,71.98
2016-06-23T09:54:23.159Z,71.24
2016-06-23T09:55:23.147Z,71.04
2016-06-23T09:56:23.141Z,71.24
2016-06-23T09:57:22.496Z,71.59
2016-06-23T09:58:22.480Z,71.98
2016-06-23T09:59:22.467Z,71.53
2016-06-23T10:00:22.468Z,71.04
2016-06-23T10:01:23.090Z,70.86
2016-06-23T10:02:22.431Z,70.86
2016-06-23T10:03:23.069Z,70.76
2016-06-23T10:04:23.049Z,70.56
2016-06-23T10:05:22.397Z,70.86
2016-06-23T10:06:23.025Z,70.76
2016-06-23T10:07:23.008Z,70.76
2016-06-23T10:08:22.996Z,70.47
2016-06-23T10:09:22.382Z,70.18
2016-06-23T10:10:23.045Z,71.14
2016-06-23T10:11:22.968Z,71.59
2016-06-23T10:12:22.969Z,71.44
2016-06-23T10:13:22.949Z,72.46
2016-06-23T10:14:22.937Z,72.27
2016-06-23T10:15:22.286Z,73.24
2016-06-23T10:16:22.919Z,73.49
2016-06-23T10:17:22.898Z,72.66
2016-06-23T10:18:22.888Z,72.27
2016-06-23T10:19:22.912Z,71.3
2016-06-23T10:20:22.876Z,70.86
2016-06-23T10:21:22.857Z,71.28
2016-06-23T10:22:22.834Z,71.44
2016-06-23T10:23:22.840Z,70.86
2016-06-23T10:24:22.821Z,70.6
2016-06-23T10:25:22.817Z,70.95
2016-06-23T10:26:22.799Z,71.04
2016-06-23T10:27:22.787Z,71.14
2016-06-23T10:28:22.768Z,71.04
2016-06-23T10:29:22.772Z,71.53
2016-06-23T10:30:22.758Z,71.59
2016-06-23T10:31:22.091Z,71.04
2016-06-23T10:32:22.732Z,70.01
2016-06-23T10:33:22.080Z,70.6
2016-06-23T10:34:22.744Z,69.92
2016-06-23T10:35:22.706Z,70.56
2016-06-23T10:36:22.676Z,70.56
2016-06-23T10:37:22.675Z,69.53
2016-06-23T10:38:22.024Z,68.85
2016-06-23T10:39:22.642Z,68.89
2016-06-23T10:40:22.643Z,69.15
2016-06-23T10:41:22.647Z,68.76
2016-06-23T10:42:22.616Z,69.08
2016-06-23T10:43:22.622Z,69.63
2016-06-23T10:44:21.956Z,68.56
2016-06-23T10:45:22.572Z,67.82
2016-06-23T10:46:22.971Z,68.6
2016-06-23T10:47:21.914Z,67.72
2016-06-23T10:48:22.887Z,67.34
2016-06-23T10:49:22.584Z,66.6
2016-06-23T10:50:22.518Z,66.89
2016-06-23T10:51:21.870Z,67.47
2016-06-23T10:52:22.508Z,67.14
2016-06-23T10:53:22.554Z,67.72
2016-06-23T10:54:22.489Z,68.37
2016-06-23T10:55:22.468Z,67.82
2016-06-23T10:56:22.628Z,67.18
2016-06-23T10:57:22.897Z,66.99
2016-06-23T10:58:22.682Z,65.43
2016-06-23T10:59:22.661Z,65.95
2016-06-23T11:00:22.540Z,66.14
2016-06-23T11:01:21.901Z,66.24
2016-06-23T11:02:22.406Z,67.4
2016-06-23T11:03:22.381Z,67.27
2016-06-23T11:04:22.457Z,67.08
2016-06-23T11:05:21.720Z,66.99
2016-06-23T11:06:22.353Z,68.66
2016-06-23T11:07:22.340Z,68.37
2016-06-23T11:08:22.370Z,67.05
2016-06-23T11:09:22.360Z,67.85
2016-06-23T11:10:22.862Z,67.66
2016-06-23T11:11:21.646Z,67.47
2016-06-23T11:12:22.319Z,66.95
2016-06-23T11:13:22.314Z,65.72
2016-06-23T11:14:22.343Z,65.27
2016-06-23T11:15:22.387Z,65.37
2016-06-23T11:16:22.242Z,64.92
2016-06-23T11:17:21.588Z,64.98
2016-06-23T11:18:22.420Z,64.14
2016-06-23T11:19:22.672Z,64.53
2016-06-23T11:20:22.185Z,64.78
2016-06-23T11:21:22.185Z,64.69
2016-06-23T11:22:21.522Z,64.23
2016-06-23T11:23:22.152Z,62.81
2016-06-23T11:24:22.155Z,63.71
2016-06-23T11:25:22.147Z,63.68
2016-06-23T11:26:22.119Z,63.1
2016-06-23T11:27:22.120Z,62.91
2016-06-23T11:28:21.460Z,62.23
2016-06-23T11:29:22.090Z,61.68
2016-06-23T11:30:21.466Z,61.58
2016-06-23T11:31:22.100Z,62.65
2016-06-23T11:32:22.105Z,61.97
2016-06-23T11:33:22.052Z,61.09
2016-06-23T11:34:22.047Z,61
2016-06-23T11:35:22.098Z,61.51
2016-06-23T11:36:22.019Z,62.94
2016-06-23T11:37:22.012Z,62.23
2016-06-23T11:38:21.548Z,62.84
2016-06-23T11:39:21.994Z,62.81
2016-06-23T11:40:21.352Z,62.94
2016-06-23T11:41:22.221Z,61.74
2016-06-23T11:42:21.338Z,61.29
2016-06-23T11:43:21.966Z,59.86
2016-06-23T11:44:21.968Z,61.02
2016-06-23T11:45:21.317Z,61.02
2016-06-23T11:46:21.955Z,60.54
2016-06-23T11:47:22.098Z,60.25
2016-06-23T11:48:22.019Z,60.25
2016-06-23T11:49:21.921Z,59.38
2016-06-23T11:50:21.911Z,59.79
2016-06-23T11:51:21.905Z,58.62
2016-06-23T11:52:21.900Z,57.03
2016-06-23T11:53:21.262Z,57.03
2016-06-23T11:54:21.892Z,57.03
2016-06-23T11:55:21.893Z,55.74
2016-06-23T11:56:21.883Z,56.27
2016-06-23T11:57:21.877Z,57.03
2016-06-23T11:58:21.878Z,57.42
2016-06-23T11:59:21.868Z,56.22
2016-06-23T12:00:21.862Z,54.82
2016-06-23T12:01:21.212Z,55.43
2016-06-23T12:02:21.856Z,55.79
2016-06-23T12:03:21.221Z,54.46
2016-06-23T12:04:21.212Z,52.17
2016-06-23T12:05:21.882Z,51.68
2016-06-23T12:06:21.359Z,51.8
2016-06-23T12:07:22.053Z,52.07
2016-06-23T12:08:21.202Z,51.9
2016-06-23T12:09:21.187Z,51.21
2016-06-23T12:10:21.187Z,49.58
2016-06-23T12:11:21.838Z,48.34
2016-06-23T12:12:21.823Z,48.19
2016-06-23T12:13:21.817Z,46.65
2016-06-23T12:14:21.828Z,46.37
2016-06-23T12:15:21.165Z,47.33
2016-06-23T12:16:21.806Z,47.99
2016-06-23T12:17:21.170Z,48.07
2016-06-23T12:18:21.851Z,47.58
2016-06-23T12:19:21.167Z,46.53
2016-06-23T12:20:21.799Z,46.08
2016-06-23T12:21:21.795Z,46.08
2016-06-23T12:22:21.163Z,45.89
2016-06-23T12:23:21.802Z,44.71
2016-06-23T12:24:21.806Z,45.54
2016-06-23T12:25:21.809Z,45.69
2016-06-23T12:26:21.809Z,45.5
2016-06-23T12:27:21.795Z,46.06
2016-06-23T12:28:21.798Z,45.3
2016-06-23T12:29:21.793Z,44.54
2016-06-23T12:30:21.154Z,47.38
2016-06-23T12:31:21.144Z,49.71
2016-06-23T12:32:21.792Z,48.9
2016-06-23T12:33:21.797Z,49.29
2016-06-23T12:34:21.796Z,51.63
2016-06-23T12:35:21.786Z,51.26
2016-06-23T12:36:21.801Z,49.54
2016-06-23T12:37:21.807Z,49.22
2016-06-23T12:38:21.146Z,49.78
2016-06-23T12:39:21.793Z,49.78
2016-06-23T12:40:21.779Z,46.99
2016-06-23T12:41:21.788Z,44.89
2016-06-23T12:42:21.791Z,44.93
2016-06-23T12:43:21.780Z,44.71
2016-06-23T12:44:21.779Z,43.66
2016-06-23T12:45:21.793Z,44.64
2016-06-23T12:46:21.786Z,44.54
2016-06-23T12:47:21.776Z,44.17
2016-06-23T12:48:21.154Z,45.42
2016-06-23T12:49:21.782Z,43.85
2016-06-23T12:50:21.774Z,43.56
2016-06-23T12:51:21.782Z,43.41
2016-06-23T12:52:21.140Z,44.38
2016-06-23T12:53:21.780Z,44.32
2016-06-23T12:54:21.782Z,45.03
2016-06-23T12:55:21.764Z,45.18